Time;durP1;ratioP1;P1;durP2;ratioP2;P2;SDS_P1;SDS_P2;PMS_P1;PMS_P2;Temp;Humidity;BMP_temperature;BMP_pressure;BME280_temperature;BME280_humidity;BME280_pressure;Samples;Min_cycle;Max_cycle;Signal;HPM_P1;HPM_P2
2022/05/18 00:00:27;;;;;;;0.00;0.00;;;17.80;75.90;;;;;;5078756;28;20044;-67
2022/05/18 00:02:59;;;;;;;0.00;0.00;;;17.80;76.10;;;;;;5077891;28;20515;-67
2022/05/18 00:05:25;;;;;;;;;;;17.80;76.10;;;;;;5086830;28;20044;-67
2022/05/18 00:07:50;;;;;;;0.00;0.00;;;17.70;76.10;;;;;;5082022;28;20698;-67
2022/05/18 00:10:17;;;;;;;0.00;0.00;;;17.70;76.30;;;;;;5070854;28;20836;-67
2022/05/18 00:12:49;;;;;;;0.00;0.00;;;17.70;76.50;;;;;;5072365;28;20501;-67
2022/05/18 00:15:16;;;;;;;0.00;0.00;;;17.70;76.70;;;;;;5070131;28;20041;-67
2022/05/18 00:17:42;;;;;;;0.00;0.00;;;17.70;76.70;;;;;;5072165;28;20039;-67
2022/05/18 00:20:09;;;;;;;0.00;0.00;;;17.70;76.90;;;;;;5075843;28;20036;-67
2022/05/18 00:22:43;;;;;;;0.00;0.00;;;17.70;76.60;;;;;;5077643;28;20089;-67
2022/05/18 00:25:09;;;;;;;0.00;0.00;;;17.60;76.80;;;;;;5078187;28;20028;-66
2022/05/18 00:27:34;;;;;;;0.00;0.00;;;17.60;76.80;;;;;;5089587;28;20086;-67
2022/05/18 00:30:00;;;;;;;0.00;0.00;;;17.60;76.80;;;;;;5092623;28;20080;-68
2022/05/18 00:32:25;;;;;;;0.00;0.00;;;17.60;77.00;;;;;;5086760;28;20041;-67
2022/05/18 00:34:51;;;;;;;0.00;0.00;;;17.50;77.00;;;;;;5083979;28;20068;-67
2022/05/18 00:37:17;;;;;;;0.00;0.00;;;17.50;76.80;;;;;;5083952;28;20052;-67
2022/05/18 00:39:42;;;;;;;0.00;0.00;;;17.50;77.20;;;;;;5091372;28;20385;-67
2022/05/18 00:42:18;;;;;;;0.00;0.00;;;17.50;77.20;;;;;;5083518;28;20401;-67
2022/05/18 00:44:43;;;;;;;0.00;0.00;;;17.40;76.90;;;;;;5072615;28;20106;-67
2022/05/18 00:47:09;;;;;;;0.00;0.00;;;17.30;76.80;;;;;;5073722;28;20040;-67
2022/05/18 00:49:35;;;;;;;0.00;0.00;;;17.30;77.00;;;;;;5082945;28;20029;-68
2022/05/18 00:52:00;;;;;;;0.00;0.00;;;17.30;77.50;;;;;;5089866;28;20025;-67
2022/05/18 00:54:31;;;;;;;0.00;0.00;;;17.20;77.40;;;;;;5078060;28;20081;-67
2022/05/18 00:57:02;;;;;;;0.00;0.00;;;17.10;77.20;;;;;;5088853;28;20048;-67
2022/05/18 00:59:29;;;;;;;;;;;17.10;77.30;;;;;;5091104;28;20516;-68
2022/05/18 01:01:57;;;;;;;0.00;0.00;;;17.10;77.30;;;;;;5086103;28;19931;-67
2022/05/18 01:04:25;;;;;;;0.00;0.00;;;17.10;77.50;;;;;;5072708;28;20413;-67
2022/05/18 01:06:58;;;;;;;0.00;0.00;;;17.10;77.60;;;;;;5089503;28;20086;-68
2022/05/18 01:09:39;;;;;;;0.10;0.10;;;17.00;77.50;;;;;;5090835;28;20572;-67
2022/05/18 01:12:07;;;;;;;0.00;0.00;;;17.00;77.40;;;;;;5089166;28;20055;-67
2022/05/18 01:14:39;;;;;;;0.00;0.00;;;17.00;77.50;;;;;;5083856;28;20397;-67
2022/05/18 01:17:06;;;;;;;0.00;0.00;;;17.00;77.80;;;;;;5081751;28;20047;-67
2022/05/18 01:19:36;;;;;;;0.00;0.00;;;17.00;77.70;;;;;;5087284;28;20043;-68
2022/05/18 01:22:37;;;;;;;0.00;0.00;;;17.00;77.60;;;;;;5083497;28;20047;-67
2022/05/18 01:25:22;;;;;;;0.00;0.00;;;17.00;77.50;;;;;;5082435;28;20036;-67
2022/05/18 01:27:48;;;;;;;0.00;0.00;;;16.90;77.50;;;;;;5090872;28;20417;-67
2022/05/18 01:30:14;;;;;;;0.00;0.00;;;17.00;77.70;;;;;;5076482;28;20048;-67
2022/05/18 01:32:46;;;;;;;0.00;0.00;;;17.00;77.60;;;;;;5071863;28;20055;-67
2022/05/18 01:35:20;;;;;;;0.00;0.00;;;17.00;77.80;;;;;;5071865;28;20537;-67
2022/05/18 01:37:46;;;;;;;0.00;0.00;;;16.90;77.90;;;;;;5071267;28;20131;-67
2022/05/18 01:40:35;;;;;;;0.00;0.00;;;16.90;77.80;;;;;;5080375;28;20131;-68
2022/05/18 01:43:24;;;;;;;0.00;0.00;;;16.80;77.80;;;;;;5078396;28;20039;-67
2022/05/18 01:45:52;;;;;;;0.00;0.00;;;16.90;78.10;;;;;;5079888;28;20487;-68
2022/05/18 01:48:20;;;;;;;0.00;0.00;;;16.90;78.60;;;;;;5076425;28;20413;-67
2022/05/18 01:50:47;;;;;;;0.00;0.00;;;16.80;78.30;;;;;;5075298;28;20036;-68
2022/05/18 01:53:13;;;;;;;0.00;0.00;;;16.90;78.30;;;;;;5084034;28;20505;-67
2022/05/18 01:55:38;;;;;;;0.00;0.00;;;16.80;78.40;;;;;;5072391;28;20044;-68
2022/05/18 01:58:05;;;;;;;0.00;0.00;;;16.80;78.50;;;;;;5073547;28;20119;-67
2022/05/18 02:00:31;;;;;;;0.00;0.00;;;16.80;78.40;;;;;;5075400;28;20074;-68
2022/05/18 02:02:57;;;;;;;0.00;0.00;;;16.80;78.40;;;;;;5072370;28;20040;-67
2022/05/18 02:05:23;;;;;;;0.00;0.00;;;16.80;78.20;;;;;;5075479;28;20729;-67
2022/05/18 02:07:49;;;;;;;0.00;0.00;;;16.80;78.10;;;;;;5074659;28;20055;-68
2022/05/18 02:10:15;;;;;;;0.00;0.00;;;16.80;78.00;;;;;;5085215;28;20400;-67
2022/05/18 02:12:41;;;;;;;0.00;0.00;;;16.80;78.00;;;;;;5072415;28;20135;-67
2022/05/18 02:15:07;;;;;;;0.00;0.00;;;16.80;78.20;;;;;;5088175;28;20045;-67
2022/05/18 02:17:33;;;;;;;0.00;0.00;;;16.70;78.30;;;;;;5088987;28;20040;-67
2022/05/18 02:19:59;;;;;;;0.00;0.00;;;16.70;78.50;;;;;;5090245;28;20044;-67
2022/05/18 02:22:25;;;;;;;0.00;0.00;;;16.70;78.60;;;;;;5079100;28;20508;-67
2022/05/18 02:24:50;;;;;;;0.00;0.00;;;16.70;78.50;;;;;;5085650;28;20040;-66
2022/05/18 02:27:17;;;;;;;0.00;0.00;;;16.70;78.60;;;;;;5077073;28;20040;-67
2022/05/18 02:29:42;;;;;;;0.00;0.00;;;16.70;78.50;;;;;;5076339;28;20066;-67
2022/05/18 02:32:09;;;;;;;0.10;0.10;;;16.60;78.40;;;;;;5081219;28;20047;-67
2022/05/18 02:34:35;;;;;;;0.00;0.00;;;16.60;78.60;;;;;;5073052;28;20036;-68
2022/05/18 02:37:02;;;;;;;0.00;0.00;;;16.60;78.40;;;;;;5086371;28;20081;-67
2022/05/18 02:39:27;;;;;;;0.00;0.00;;;16.60;78.40;;;;;;5070330;28;20059;-68
2022/05/18 02:41:53;;;;;;;0.00;0.00;;;16.50;78.40;;;;;;5074639;28;20036;-68
2022/05/18 02:44:19;;;;;;;0.00;0.00;;;16.50;78.50;;;;;;5073854;28;20040;-68
2022/05/18 02:46:44;;;;;;;0.00;0.00;;;16.40;78.60;;;;;;5074647;28;20123;-68
2022/05/18 02:49:10;;;;;;;0.00;0.00;;;16.40;79.00;;;;;;5081347;28;20444;-68
2022/05/18 02:51:39;;;;;;;0.00;0.00;;;16.40;78.70;;;;;;5088326;28;20050;-68
2022/05/18 02:56:54;;;;;;;0.00;0.00;;;16.30;78.60;;;;;;5069664;28;20123;-69
2022/05/18 02:59:21;;;;;;;0.00;0.00;;;16.30;78.80;;;;;;5069777;28;20040;-68
2022/05/18 03:01:48;;;;;;;0.00;0.00;;;16.30;78.70;;;;;;5077214;28;20040;-67
2022/05/18 03:04:14;;;;;;;0.00;0.00;;;16.30;78.60;;;;;;5096040;28;20056;-67
2022/05/18 03:06:40;;;;;;;0.00;0.00;;;16.20;78.70;;;;;;5069486;28;20044;-68
2022/05/18 03:09:06;;;;;;;0.00;0.00;;;16.20;78.70;;;;;;5071515;28;20036;-67
2022/05/18 03:11:32;;;;;;;0.00;0.00;;;16.30;78.60;;;;;;5069917;28;20123;-67
2022/05/18 03:13:58;;;;;;;0.00;0.00;;;16.20;78.70;;;;;;5069250;28;20143;-69
2022/05/18 03:16:24;;;;;;;0.00;0.00;;;16.10;78.70;;;;;;5069662;28;20049;-67
2022/05/18 03:18:50;;;;;;;0.00;0.00;;;16.10;78.70;;;;;;5084160;28;20127;-67
2022/05/18 03:24:00;;;;;;;0.00;0.00;;;16.10;78.80;;;;;;5089498;28;20047;-68
2022/05/18 03:26:25;;;;;;;0.00;0.00;;;16.00;78.80;;;;;;5082609;28;20103;-68
2022/05/18 03:28:55;;;;;;;0.00;0.00;;;16.00;78.90;;;;;;5070457;28;20040;-68
2022/05/18 03:31:21;;;;;;;0.00;0.00;;;16.00;78.90;;;;;;5077536;28;20040;-69
2022/05/18 03:33:47;;;;;;;0.00;0.00;;;16.00;79.10;;;;;;5083362;28;20040;-68
2022/05/18 03:36:15;;;;;;;0.00;0.00;;;15.90;79.10;;;;;;5087942;28;20067;-68
2022/05/18 03:38:43;;;;;;;0.70;0.40;;;16.00;79.10;;;;;;5085709;28;20101;-69
2022/05/18 03:41:09;;;;;;;0.00;0.00;;;16.00;79.10;;;;;;5079715;28;20040;-69
2022/05/18 03:43:35;;;;;;;0.00;0.00;;;16.00;79.20;;;;;;5081257;28;20040;-68
2022/05/18 03:46:01;;;;;;;0.00;0.00;;;16.00;79.30;;;;;;5085147;28;20036;-69
2022/05/18 03:48:27;;;;;;;0.00;0.00;;;16.00;79.40;;;;;;5071103;28;20101;-67
2022/05/18 03:50:54;;;;;;;0.00;0.00;;;16.00;79.30;;;;;;5069798;28;20036;-68
2022/05/18 03:53:20;;;;;;;0.00;0.00;;;16.00;79.40;;;;;;5069058;28;20048;-68
2022/05/18 03:55:46;;;;;;;0.00;0.00;;;15.90;79.50;;;;;;5069992;28;20086;-68
2022/05/18 03:58:13;;;;;;;0.00;0.00;;;16.00;79.30;;;;;;5073976;28;20093;-68
2022/05/18 04:00:41;;;;;;;0.00;0.00;;;16.00;79.50;;;;;;5088032;28;20044;-68
2022/05/18 04:03:08;;;;;;;0.00;0.00;;;15.90;79.70;;;;;;5071793;28;20067;-68
2022/05/18 04:05:37;;;;;;;0.00;0.00;;;16.00;79.90;;;;;;5069130;28;20045;-67
2022/05/18 04:08:02;;;;;;;0.00;0.00;;;16.00;79.60;;;;;;5072407;28;20048;-68
2022/05/18 04:10:28;;;;;;;0.00;0.00;;;16.00;79.70;;;;;;5087813;28;20408;-68
2022/05/18 04:12:54;;;;;;;0.00;0.00;;;15.90;79.90;;;;;;5069350;28;20048;-68
2022/05/18 04:15:19;;;;;;;0.00;0.00;;;16.00;80.20;;;;;;5068992;28;20063;-67
2022/05/18 04:17:46;;;;;;;0.00;0.00;;;16.00;80.40;;;;;;5086739;28;20044;-68
2022/05/18 04:20:13;;;;;;;0.00;0.00;;;16.00;80.50;;;;;;5076276;28;20041;-67
2022/05/18 04:22:40;;;;;;;0.00;0.00;;;15.90;80.40;;;;;;5072623;28;20044;-68
2022/05/18 04:25:06;;;;;;;0.00;0.00;;;16.00;80.30;;;;;;5072743;28;20564;-68
2022/05/18 04:27:31;;;;;;;0.00;0.00;;;16.00;80.20;;;;;;5070198;28;20041;-68
2022/05/18 04:29:57;;;;;;;0.00;0.00;;;16.00;80.40;;;;;;5070562;28;20048;-67
2022/05/18 04:32:24;;;;;;;0.00;0.00;;;16.00;80.60;;;;;;5084732;28;20043;-68
2022/05/18 04:34:50;;;;;;;0.00;0.00;;;16.00;80.90;;;;;;5081956;28;20099;-70
2022/05/18 04:37:17;;;;;;;0.00;0.00;;;16.00;81.00;;;;;;5073361;28;20070;-67
2022/05/18 04:39:43;;;;;;;0.00;0.00;;;16.00;80.80;;;;;;5085338;28;20032;-67
2022/05/18 04:42:09;;;;;;;0.00;0.00;;;16.00;80.80;;;;;;5080959;28;20408;-68
2022/05/18 04:44:35;;;;;;;0.00;0.00;;;16.00;81.00;;;;;;5075162;28;20037;-68
2022/05/18 04:47:01;;;;;;;0.00;0.00;;;16.10;80.80;;;;;;5072092;28;20044;-68
2022/05/18 04:49:27;;;;;;;0.00;0.00;;;16.10;81.10;;;;;;5072225;28;20048;-68
2022/05/18 04:51:53;;;;;;;0.05;0.05;;;16.10;81.10;;;;;;5072983;28;20122;-69
2022/05/18 04:54:19;;;;;;;0.00;0.00;;;16.10;81.30;;;;;;5079385;28;20063;-68
2022/05/18 04:56:44;;;;;;;0.00;0.00;;;16.20;81.10;;;;;;5071552;28;20047;-69
2022/05/18 04:59:12;;;;;;;0.00;0.00;;;16.10;81.00;;;;;;5080374;28;20044;-69
2022/05/18 05:01:39;;;;;;;0.00;0.00;;;16.20;81.10;;;;;;5069067;28;20040;-68
2022/05/18 05:04:09;;;;;;;0.00;0.00;;;16.20;81.20;;;;;;5071967;28;20053;-68
2022/05/18 05:06:40;;;;;;;0.00;0.00;;;16.30;81.20;;;;;;5073119;28;20044;-68
2022/05/18 05:09:06;;;;;;;0.00;0.00;;;16.40;81.30;;;;;;5076263;28;20037;-68
2022/05/18 05:11:33;;;;;;;0.00;0.00;;;16.50;81.30;;;;;;5078357;28;20278;-69
2022/05/18 05:13:59;;;;;;;0.00;0.00;;;16.50;81.40;;;;;;5078648;28;20048;-68
2022/05/18 05:16:26;;;;;;;0.00;0.00;;;16.60;81.30;;;;;;5083392;28;20042;-68
2022/05/18 05:18:52;;;;;;;0.00;0.00;;;16.60;81.30;;;;;;5084614;28;20052;-68
2022/05/18 05:21:17;;;;;;;0.00;0.00;;;16.70;81.50;;;;;;5090915;28;20033;-68
2022/05/18 05:23:43;;;;;;;0.00;0.00;;;16.80;82.10;;;;;;5080609;28;20423;-68
2022/05/18 05:26:08;;;;;;;0.00;0.00;;;16.80;82.30;;;;;;5083870;28;20054;-68
2022/05/18 05:28:34;;;;;;;0.00;0.00;;;16.90;82.70;;;;;;5088404;28;20141;-68
2022/05/18 05:31:04;;;;;;;0.00;0.00;;;17.00;82.80;;;;;;5071448;28;20433;-69
2022/05/18 05:33:31;;;;;;;0.00;0.00;;;17.10;82.60;;;;;;5080442;28;20047;-69
2022/05/18 05:35:57;;;;;;;0.00;0.00;;;17.10;82.40;;;;;;5086048;28;20040;-69
2022/05/18 05:38:23;;;;;;;0.00;0.00;;;17.20;82.90;;;;;;5090383;28;20055;-69
2022/05/18 05:40:49;;;;;;;0.00;0.00;;;17.30;82.60;;;;;;5089461;28;20040;-68
2022/05/18 05:43:15;;;;;;;0.00;0.00;;;17.30;82.70;;;;;;5090188;28;20400;-68
2022/05/18 05:45:40;;;;;;;0.00;0.00;;;17.40;82.50;;;;;;5082642;28;20131;-68
2022/05/18 05:48:08;;;;;;;0.03;0.03;;;17.50;82.60;;;;;;5088579;28;20493;-68
2022/05/18 05:50:34;;;;;;;0.00;0.00;;;17.50;82.50;;;;;;5083839;28;20055;-68
2022/05/18 05:53:00;;;;;;;0.00;0.00;;;17.60;82.40;;;;;;5088215;28;20032;-68
2022/05/18 05:55:27;;;;;;;0.00;0.00;;;17.70;82.30;;;;;;5089163;28;20036;-69
2022/05/18 05:57:54;;;;;;;3.20;0.43;;;17.80;82.40;;;;;;5078669;28;20278;-69
2022/05/18 06:00:21;;;;;;;0.10;0.10;;;17.90;83.00;;;;;;5087948;28;20040;-68
2022/05/18 06:02:46;;;;;;;0.00;0.00;;;17.90;82.90;;;;;;5081422;28;20041;-68
2022/05/18 06:05:13;;;;;;;0.00;0.00;;;18.00;82.30;;;;;;5070974;28;20448;-69
2022/05/18 06:07:39;;;;;;;0.00;0.00;;;18.00;82.20;;;;;;5071693;28;20518;-68
2022/05/18 06:10:05;;;;;;;0.05;0.05;;;18.00;82.10;;;;;;5071551;28;20032;-68
2022/05/18 06:12:31;;;;;;;0.00;0.00;;;18.00;81.90;;;;;;5084269;28;20058;-68
2022/05/18 06:14:57;;;;;;;0.00;0.00;;;18.10;81.70;;;;;;5089103;28;20386;-68
2022/05/18 06:17:23;;;;;;;0.00;0.00;;;18.20;81.60;;;;;;5090001;28;20115;-68
2022/05/18 06:19:48;;;;;;;0.00;0.00;;;18.20;81.10;;;;;;5084186;28;20459;-68
2022/05/18 06:22:14;;;;;;;0.00;0.00;;;18.30;81.10;;;;;;5071853;28;20047;-69
2022/05/18 06:24:40;;;;;;;0.08;0.08;;;18.40;81.20;;;;;;5074210;28;20062;-68
2022/05/18 06:27:06;;;;;;;0.00;0.00;;;18.40;80.90;;;;;;5074485;28;20040;-68
2022/05/18 06:29:32;;;;;;;0.00;0.00;;;18.50;80.90;;;;;;5068975;28;20048;-68
2022/05/18 06:31:58;;;;;;;0.00;0.00;;;18.60;80.80;;;;;;5076004;28;20106;-68
2022/05/18 06:34:24;;;;;;;0.00;0.00;;;18.70;80.50;;;;;;5088857;28;20496;-69
2022/05/18 06:36:50;;;;;;;0.00;0.00;;;18.80;80.40;;;;;;5088763;28;20044;-69
2022/05/18 06:39:18;;;;;;;2.35;1.00;;;18.80;80.10;;;;;;5070823;28;20047;-70
2022/05/18 06:41:45;;;;;;;0.00;0.00;;;19.00;79.50;;;;;;5084519;28;20040;-70
2022/05/18 06:44:10;;;;;;;0.00;0.00;;;19.00;79.20;;;;;;5071675;28;20841;-70
2022/05/18 06:46:37;;;;;;;0.00;0.00;;;19.00;79.10;;;;;;5079277;28;20139;-70
2022/05/18 06:49:08;;;;;;;0.13;0.13;;;19.10;79.00;;;;;;5070290;28;20077;-69
2022/05/18 06:51:38;;;;;;;0.20;0.20;;;19.10;78.90;;;;;;5071376;28;20067;-69
2022/05/18 06:54:05;;;;;;;1.02;0.47;;;19.10;78.80;;;;;;5084825;28;20040;-69
2022/05/18 06:56:33;;;;;;;2.92;0.55;;;19.20;78.60;;;;;;5073287;28;20094;-69
2022/05/18 06:59:00;;;;;;;0.00;0.00;;;19.20;78.70;;;;;;5070022;28;20394;-68
2022/05/18 07:01:28;;;;;;;0.10;0.10;;;19.30;78.70;;;;;;5075338;28;20040;-68
2022/05/18 07:03:55;;;;;;;0.00;0.00;;;19.40;78.50;;;;;;5084433;28;20028;-68
2022/05/18 07:06:23;;;;;;;0.30;0.30;;;19.40;78.20;;;;;;5078037;28;20072;-67
2022/05/18 07:08:51;;;;;;;0.00;0.00;;;19.50;77.70;;;;;;5089850;28;20075;-68
2022/05/18 07:11:18;;;;;;;0.20;0.20;;;19.60;77.00;;;;;;5083617;28;20047;-68
2022/05/18 07:13:46;;;;;;;0.00;0.00;;;19.80;76.90;;;;;;5089670;28;20493;-67
2022/05/18 07:16:12;;;;;;;0.00;0.00;;;19.90;76.80;;;;;;5076345;28;20413;-68
2022/05/18 07:18:38;;;;;;;0.73;0.45;;;20.00;76.40;;;;;;5069642;28;20107;-69
2022/05/18 07:21:06;;;;;;;0.00;0.00;;;20.10;75.30;;;;;;5070001;28;20517;-69
2022/05/18 07:23:32;;;;;;;0.00;0.00;;;20.20;74.70;;;;;;5077680;28;20036;-69
2022/05/18 07:25:58;;;;;;;0.45;0.28;;;20.30;74.00;;;;;;5078140;28;20032;-69
2022/05/18 07:28:24;;;;;;;0.00;0.00;;;20.30;73.30;;;;;;5069190;28;20040;-69
2022/05/18 07:30:51;;;;;;;0.00;0.00;;;20.40;73.70;;;;;;5069931;28;20547;-68
2022/05/18 07:33:18;;;;;;;0.03;0.03;;;20.40;73.60;;;;;;5072242;28;20044;-68
2022/05/18 07:35:44;;;;;;;0.00;0.00;;;20.50;73.60;;;;;;5069262;28;20033;-68
2022/05/18 07:38:10;;;;;;;0.00;0.00;;;20.50;73.70;;;;;;5069256;28;20056;-69
2022/05/18 07:40:35;;;;;;;0.80;0.35;;;20.50;72.90;;;;;;5071755;28;20036;-69
2022/05/18 07:43:02;;;;;;;0.00;0.00;;;20.50;72.80;;;;;;5068920;28;20115;-68
2022/05/18 07:45:28;;;;;;;0.00;0.00;;;20.60;72.40;;;;;;5068834;28;20489;-68
2022/05/18 07:47:55;;;;;;;0.43;0.43;;;20.60;73.10;;;;;;5070585;28;20425;-68
2022/05/18 07:50:22;;;;;;;0.00;0.00;;;20.60;72.10;;;;;;5087499;28;20040;-68
2022/05/18 07:52:49;;;;;;;0.10;0.10;;;20.70;71.50;;;;;;5078620;28;20051;-68
2022/05/18 07:55:15;;;;;;;0.30;0.30;;;20.80;71.60;;;;;;5083679;28;20516;-68
2022/05/18 07:57:41;;;;;;;0.00;0.00;;;20.80;71.90;;;;;;5087103;28;20044;-67
2022/05/18 08:00:08;;;;;;;0.00;0.00;;;20.90;71.90;;;;;;5089468;28;20044;-68
2022/05/18 08:02:34;;;;;;;0.10;0.10;;;20.90;71.90;;;;;;5075986;28;20675;-66
2022/05/18 08:05:00;;;;;;;0.00;0.00;;;21.00;71.80;;;;;;5075237;28;20076;-67
2022/05/18 08:07:26;;;;;;;0.00;0.00;;;21.00;71.50;;;;;;5083612;28;20122;-67
2022/05/18 08:15:22;;;;;;;0.75;0.60;;;21.10;72.20;;;;;;5072428;28;20134;-67
2022/05/18 08:17:48;;;;;;;0.15;0.15;;;21.20;71.60;;;;;;5083619;28;20043;-67
2022/05/18 08:20:18;;;;;;;0.15;0.15;;;21.20;71.00;;;;;;5075727;28;20054;-68
2022/05/18 08:22:44;;;;;;;0.10;0.10;;;21.30;70.90;;;;;;5086196;28;20127;-67
2022/05/18 08:25:11;;;;;;;0.03;0.03;;;21.40;70.90;;;;;;5079477;28;20115;-67
2022/05/18 08:27:42;;;;;;;0.90;0.63;;;21.40;70.00;;;;;;5067793;28;20059;-68
2022/05/18 08:30:09;;;;;;;0.47;0.38;;;21.40;70.90;;;;;;5082101;28;20595;-68
2022/05/18 08:32:35;;;;;;;0.65;0.65;;;21.50;70.80;;;;;;5085124;28;20048;-68
2022/05/18 08:35:01;;;;;;;0.00;0.00;;;21.50;71.40;;;;;;5074195;28;20040;-68
2022/05/18 08:37:27;;;;;;;0.52;0.40;;;21.50;71.80;;;;;;5076067;28;20523;-68
2022/05/18 08:39:52;;;;;;;0.00;0.00;;;21.50;70.00;;;;;;5096036;28;20049;-67
2022/05/18 08:42:20;;;;;;;0.00;0.00;;;21.60;70.80;;;;;;5090412;28;20408;-68
2022/05/18 08:44:46;;;;;;;0.00;0.00;;;21.60;70.90;;;;;;5073422;28;20048;-67
2022/05/18 08:47:50;;;;;;;0.52;0.30;;;21.60;69.90;;;;;;5075012;28;20058;-68
2022/05/18 08:50:20;;;;;;;0.00;0.00;;;21.80;69.90;;;;;;5074310;28;20048;-69
2022/05/18 08:53:23;;;;;;;0.00;0.00;;;21.80;68.90;;;;;;5078465;28;20435;-66
2022/05/18 08:56:01;;;;;;;1.02;0.65;;;22.00;68.90;;;;;;5082939;28;20150;-67
2022/05/18 08:58:29;;;;;;;0.00;0.00;;;22.00;68.10;;;;;;5090636;28;20043;-68
2022/05/18 09:01:05;;;;;;;0.10;0.10;;;22.00;66.50;;;;;;5073389;28;20056;-68
2022/05/18 09:03:49;;;;;;;0.75;0.60;;;22.10;67.70;;;;;;5071752;28;20052;-68
2022/05/18 09:06:35;;;;;;;0.32;0.32;;;22.10;66.40;;;;;;5069976;28;20580;-68
2022/05/18 09:12:11;;;;;;;0.10;0.10;;;22.30;66.80;;;;;;5078507;28;20411;-68
2022/05/18 09:14:38;;;;;;;0.10;0.10;;;22.30;66.70;;;;;;5077383;28;20048;-68
2022/05/18 09:17:29;;;;;;;0.10;0.10;;;22.30;67.00;;;;;;5071295;28;20048;-68
2022/05/18 09:20:26;;;;;;;0.38;0.38;;;22.30;66.90;;;;;;5070702;28;20049;-68
2022/05/18 09:23:19;;;;;;;1.02;0.45;;;22.30;67.80;;;;;;5087496;28;20053;-68
2022/05/18 09:26:02;;;;;;;0.57;0.57;;;22.30;67.00;;;;;;5072191;28;20044;-67
2022/05/18 09:28:50;;;;;;;0.10;0.10;;;22.20;67.00;;;;;;5072473;28;20082;-68
2022/05/18 09:31:25;;;;;;;0.00;0.00;;;22.20;67.50;;;;;;5091225;28;20047;-67
2022/05/18 09:34:01;;;;;;;1.15;0.82;;;22.20;68.20;;;;;;5091193;28;20048;-67
2022/05/18 09:36:50;;;;;;;0.20;0.20;;;22.30;69.00;;;;;;5071778;28;20044;-67
2022/05/18 09:39:21;;;;;;;0.00;0.00;;;22.40;69.00;;;;;;5070846;28;20421;-66
2022/05/18 09:41:49;;;;;;;0.10;0.10;;;22.50;68.40;;;;;;5070518;28;20051;-68
2022/05/18 09:44:20;;;;;;;0.05;0.05;;;22.50;68.00;;;;;;5074379;28;20401;-68
2022/05/18 09:46:48;;;;;;;0.00;0.00;;;22.50;67.90;;;;;;5070494;28;20044;-67
2022/05/18 09:49:44;;;;;;;0.10;0.10;;;22.50;67.30;;;;;;5071894;28;20044;-67
2022/05/18 09:52:11;;;;;;;0.00;0.00;;;22.40;67.20;;;;;;5077652;28;20040;-68
2022/05/18 09:54:39;;;;;;;0.10;0.10;;;22.40;67.80;;;;;;5075122;28;20064;-67
2022/05/18 09:57:30;;;;;;;0.10;0.10;;;22.50;68.50;;;;;;5085140;28;20047;-67
2022/05/18 10:00:00;;;;;;;0.00;0.00;;;22.50;68.00;;;;;;5075149;28;20051;-67
2022/05/18 10:08:14;;;;;;;0.20;0.20;;;22.40;66.90;;;;;;5075144;28;20072;-67
2022/05/18 10:10:41;;;;;;;0.10;0.10;;;22.40;68.00;;;;;;5076980;28;20048;-67
2022/05/18 10:13:12;;;;;;;0.00;0.00;;;22.40;67.00;;;;;;5070225;28;20099;-67
2022/05/18 10:15:48;;;;;;;0.10;0.10;;;22.40;68.00;;;;;;5079362;28;20088;-74
2022/05/18 10:18:34;;;;;;;1.55;1.08;;;22.40;67.10;;;;;;5075012;28;20044;-66
2022/05/18 10:21:11;;;;;;;0.00;0.00;;;22.50;68.00;;;;;;5068821;28;20153;-66
2022/05/18 10:23:52;;;;;;;0.08;0.08;;;22.60;68.40;;;;;;5071016;28;20045;-65
2022/05/18 10:26:24;;;;;;;0.25;0.25;;;22.60;67.50;;;;;;5090136;28;20138;-65
2022/05/18 10:28:59;;;;;;;0.00;0.00;;;22.50;66.80;;;;;;5089974;28;20044;-65
2022/05/18 10:31:37;;;;;;;0.28;0.15;;;22.60;67.50;;;;;;5089711;28;20047;-66
2022/05/18 10:34:43;;;;;;;0.00;0.00;;;22.60;67.70;;;;;;5087510;28;20040;-66
2022/05/18 10:37:11;;;;;;;0.00;0.00;;;22.50;67.30;;;;;;5066096;28;20526;-65
2022/05/18 10:39:47;;;;;;;0.00;0.00;;;22.50;67.30;;;;;;5073620;28;20064;-65
2022/05/18 10:42:23;;;;;;;0.55;0.52;;;22.70;67.40;;;;;;5087777;28;20504;-66
2022/05/18 10:44:50;;;;;;;0.00;0.00;;;22.80;66.70;;;;;;5069515;28;20127;-66
2022/05/18 10:47:19;;;;;;;0.10;0.10;;;22.90;66.90;;;;;;5068427;28;20516;-66
2022/05/18 10:49:45;;;;;;;0.00;0.00;;;23.00;66.70;;;;;;5078778;28;20094;-66
2022/05/18 10:52:27;;;;;;;0.35;0.35;;;23.00;65.60;;;;;;5070126;28;20036;-66
2022/05/18 10:54:57;;;;;;;0.17;0.17;;;23.00;64.50;;;;;;5084811;28;20404;-66
2022/05/18 10:57:36;;;;;;;1.17;0.73;;;22.80;65.20;;;;;;5086289;28;20074;-66
2022/05/18 11:00:13;;;;;;;0.10;0.10;;;22.90;65.50;;;;;;5077962;28;20040;-65
2022/05/18 11:02:57;;;;;;;0.47;0.47;;;22.80;64.60;;;;;;5069956;28;20040;-66
2022/05/18 11:05:46;;;;;;;0.20;0.20;;;22.90;65.70;;;;;;5088928;28;20044;-66
2022/05/18 11:08:16;;;;;;;0.85;0.77;;;22.90;64.90;;;;;;5084056;28;20523;-67
2022/05/18 11:10:53;;;;;;;0.55;0.52;;;23.00;66.00;;;;;;5081439;28;20049;-66
2022/05/18 11:13:31;;;;;;;0.10;0.10;;;23.00;64.90;;;;;;5071592;28;20048;-66
2022/05/18 11:16:16;;;;;;;0.20;0.20;;;23.10;65.50;;;;;;5088198;28;20052;-67
2022/05/18 11:19:02;;;;;;;0.28;0.28;;;23.20;65.70;;;;;;5089148;28;20055;-66
2022/05/18 11:21:49;;;;;;;0.00;0.00;;;23.30;64.50;;;;;;5088195;28;20043;-65
2022/05/18 11:24:35;;;;;;;0.25;0.25;;;23.20;63.80;;;;;;5089655;28;20047;-66
2022/05/18 11:27:36;;;;;;;0.60;0.32;;;23.20;64.10;;;;;;5088941;28;20043;-65
2022/05/18 11:30:07;;;;;;;0.10;0.10;;;23.20;63.90;;;;;;5088300;28;20481;-66
2022/05/18 11:32:54;;;;;;;0.98;0.52;;;23.20;64.70;;;;;;5080436;28;20048;-65
2022/05/18 11:35:34;;;;;;;0.20;0.20;;;23.30;63.30;;;;;;5075268;28;20047;-65
2022/05/18 11:38:36;;;;;;;0.85;0.55;;;23.20;63.70;;;;;;5088595;28;20087;-65
2022/05/18 11:41:24;;;;;;;0.05;0.05;;;23.10;64.60;;;;;;5086855;28;20045;-66
2022/05/18 11:44:04;;;;;;;0.47;0.20;;;23.00;63.40;;;;;;5087960;28;20044;-66
2022/05/18 11:46:39;;;;;;;0.23;0.23;;;23.00;64.10;;;;;;5069569;28;20052;-70
2022/05/18 11:49:20;;;;;;;0.00;0.00;;;23.10;63.90;;;;;;5075033;28;20067;-71
2022/05/18 11:52:10;;;;;;;0.22;0.22;;;23.20;64.10;;;;;;5070286;28;20048;-66
2022/05/18 11:54:41;;;;;;;1.38;0.80;;;23.30;63.90;;;;;;5080660;28;20752;-66
2022/05/18 11:57:13;;;;;;;;;;;23.20;63.90;;;;;;5070776;28;20041;-65
2022/05/18 11:59:57;;;;;;;2.67;0.38;;;23.10;63.50;;;;;;5084257;28;20746;-66
2022/05/18 12:02:58;;;;;;;0.28;0.28;;;22.80;64.00;;;;;;5091204;28;20536;-66
2022/05/18 12:05:57;;;;;;;15.40;1.33;;;22.60;64.60;;;;;;5079561;28;20040;-66
2022/05/18 12:08:32;;;;;;;0.88;0.52;;;22.60;65.70;;;;;;5088113;28;20386;-66
2022/05/18 12:11:22;;;;;;;0.05;0.05;;;22.50;65.40;;;;;;5088726;28;20044;-65
2022/05/18 12:14:13;;;;;;;0.50;0.50;;;22.50;65.50;;;;;;5085907;28;20055;-66
2022/05/18 12:16:56;;;;;;;0.20;0.20;;;22.50;65.10;;;;;;5071738;28;20064;-67
2022/05/18 12:19:39;;;;;;;0.55;0.32;;;22.50;65.30;;;;;;5076445;28;20044;-66
2022/05/18 12:22:13;;;;;;;0.00;0.00;;;22.60;66.10;;;;;;5076445;28;20071;-66
2022/05/18 12:24:43;;;;;;;1.65;0.60;;;22.60;66.10;;;;;;5081452;28;20079;-67
2022/05/18 12:27:10;;;;;;;0.00;0.00;;;22.50;65.40;;;;;;5088331;28;20044;-68
2022/05/18 12:29:37;;;;;;;0.13;0.13;;;22.50;65.40;;;;;;5089998;28;20048;-67
2022/05/18 12:32:04;;;;;;;0.32;0.32;;;22.50;65.70;;;;;;5080474;28;20032;-66
2022/05/18 12:34:35;;;;;;;1.08;0.55;;;22.50;65.40;;;;;;5081815;28;20080;-67
2022/05/18 12:37:29;;;;;;;1.25;1.15;;;22.40;65.40;;;;;;5110192;28;20057;-66
2022/05/18 12:40:26;;;;;;;1.75;1.00;;;22.30;66.60;;;;;;5085688;28;20033;-67
2022/05/18 12:43:01;;;;;;;0.82;0.80;;;22.40;66.80;;;;;;5078643;28;20044;-67
2022/05/18 12:45:26;;;;;;;0.10;0.10;;;22.40;66.50;;;;;;5072379;28;20064;-66
2022/05/18 12:48:06;;;;;;;0.15;0.15;;;22.40;67.00;;;;;;5071782;28;20141;-66
2022/05/18 12:50:39;;;;;;;0.00;0.00;;;22.40;66.40;;;;;;5079493;28;20036;-66
2022/05/18 12:53:21;;;;;;;0.10;0.10;;;22.40;66.00;;;;;;5079320;28;20507;-65
2022/05/18 12:56:08;;;;;;;2.25;0.60;;;22.30;65.50;;;;;;5091762;28;20069;-65
2022/05/18 12:58:43;;;;;;;0.00;0.00;;;22.20;65.30;;;;;;5082763;28;20040;-65
2022/05/18 13:01:16;;;;;;;1.10;1.00;;;22.30;65.50;;;;;;5083219;28;20428;-65
2022/05/18 13:04:01;;;;;;;0.00;0.00;;;22.40;64.00;;;;;;5088139;28;20043;-66
2022/05/18 13:06:36;;;;;;;1.25;0.63;;;22.40;65.00;;;;;;5087253;28;20500;-65
2022/05/18 13:09:04;;;;;;;0.08;0.08;;;22.40;65.70;;;;;;5075476;28;20097;-65
2022/05/18 13:11:33;;;;;;;0.65;0.65;;;22.40;66.20;;;;;;5084576;28;20047;-65
2022/05/18 13:14:01;;;;;;;0.30;0.28;;;22.20;66.40;;;;;;5082822;28;20059;-66
2022/05/18 13:16:39;;;;;;;0.10;0.05;;;22.10;66.20;;;;;;5084146;28;20051;-66
2022/05/18 13:19:13;;;;;;;0.00;0.00;;;22.00;66.30;;;;;;5071777;28;20181;-66
2022/05/18 13:22:11;;;;;;;0.00;0.00;;;21.70;66.90;;;;;;5103124;28;20456;-65
2022/05/18 13:24:46;;;;;;;0.00;0.00;;;21.60;67.20;;;;;;5080001;28;20075;-65
2022/05/18 13:27:26;;;;;;;0.20;0.20;;;21.60;67.20;;;;;;5076087;28;20121;-64